Association Sportive et Culturelle de l' Aéroport de Blagnac

Section Vol Moteur

Bienvenue sur le site ASCAB Vol Moteur

LFBO TOULOUSE-BLAGNAC

METAR :
2024/05/21 00:30 LFBO 210030Z AUTO 23005KT CAVOK 12/10 Q1013 TEMPO BKN013

TAF :
2024/05/20 18:42 TAF TAF LFBO 201700Z 2018/2124 29010KT 9999 SCT035 SCT050 PROB40 TEMPO 2019/2109 BKN025 BECMG 2023/2101 23005KT TEMPO 2102/2107 BKN013 BECMG 2107/2109 28012KT BECMG 2109/2111 SCT030 BKN040 PROB30 TEMPO 2111/2118 -SHRA SCT025TCU BKN050 PROB30 TEMPO 2112/2116 28015G25KT BECMG 2119/2121 CAVOK BECMG 2121/2123 27005KT